createdAt,value
2023-11-30T00:00:38.389Z,27.35
2023-11-30T00:03:25.036Z,26.01
2023-11-30T00:05:51.750Z,25.61
2023-11-30T00:08:18.446Z,26.62
2023-11-30T00:10:45.335Z,26.12
2023-11-30T00:13:11.939Z,24.12
2023-11-30T00:15:38.577Z,24.22
2023-11-30T00:18:05.416Z,24.49
2023-11-30T00:20:32.010Z,24.91
2023-11-30T00:22:58.662Z,24.60
2023-11-30T00:25:25.328Z,24.72
2023-11-30T00:27:51.976Z,23.60
2023-11-30T00:30:18.631Z,23.36
2023-11-30T00:32:46.619Z,23.64
2023-11-30T00:35:13.319Z,23.67
2023-11-30T00:37:39.970Z,23.06
2023-11-30T00:40:08.739Z,24.01
2023-11-30T00:42:35.449Z,23.57
2023-11-30T00:45:02.175Z,23.26
2023-11-30T00:47:28.720Z,23.48
2023-11-30T00:49:55.515Z,22.76
2023-11-30T00:52:22.204Z,23.93
2023-11-30T00:54:48.705Z,24.14
2023-11-30T00:57:15.340Z,25.75
2023-11-30T00:59:41.954Z,25.82
2023-11-30T01:02:08.669Z,26.65
2023-11-30T01:04:35.345Z,26.35
2023-11-30T01:07:01.944Z,26.49
2023-11-30T01:09:28.613Z,26.20
2023-11-30T01:11:56.092Z,26.19
2023-11-30T01:14:22.685Z,25.79
2023-11-30T01:16:49.221Z,26.27
2023-11-30T01:19:15.897Z,25.69
2023-11-30T01:21:42.576Z,26.88
2023-11-30T01:26:41.369Z,27.02
2023-11-30T01:29:07.856Z,25.73
2023-11-30T01:31:34.667Z,25.54
2023-11-30T01:34:01.285Z,25.67
2023-11-30T01:36:27.909Z,25.24
2023-11-30T01:38:54.675Z,25.60
2023-11-30T01:51:28.207Z,25.94
2023-11-30T01:53:54.968Z,25.87
2023-11-30T01:56:21.563Z,26.61
2023-11-30T01:58:48.242Z,27.51
2023-11-30T02:03:46.346Z,27.57
2023-11-30T02:06:16.742Z,26.63
2023-11-30T02:08:43.610Z,26.48
2023-11-30T02:11:10.183Z,27.74
2023-11-30T02:13:36.803Z,26.51
2023-11-30T02:18:35.928Z,27.37
2023-11-30T02:21:02.651Z,27.12
2023-11-30T02:23:30.568Z,28.01
2023-11-30T02:25:57.143Z,27.34
2023-11-30T02:28:24.918Z,27.97
2023-11-30T02:30:51.992Z,27.56
2023-11-30T02:33:18.712Z,28.22
2023-11-30T02:35:45.437Z,27.66
2023-11-30T02:38:12.067Z,29.74
2023-11-30T02:40:39.767Z,30.13
2023-11-30T02:43:06.377Z,29.37
2023-11-30T02:45:32.970Z,28.11
2023-11-30T02:55:34.024Z,27.60
2023-11-30T02:58:00.633Z,27.69
2023-11-30T03:00:27.367Z,26.75
2023-11-30T03:05:25.425Z,27.07
2023-11-30T03:07:53.091Z,26.60
2023-11-30T03:10:21.632Z,27.25
2023-11-30T03:12:49.660Z,25.87
2023-11-30T03:15:18.995Z,24.03
2023-11-30T03:17:45.636Z,23.36
2023-11-30T03:20:13.369Z,23.24
2023-11-30T03:25:11.699Z,27.38
2023-11-30T03:27:39.986Z,27.65
2023-11-30T03:30:07.733Z,27.08
2023-11-30T03:32:34.503Z,26.62
2023-11-30T03:35:01.172Z,27.79
2023-11-30T03:39:59.904Z,26.95
2023-11-30T03:44:58.111Z,27.05
2023-11-30T03:47:24.789Z,27.95
2023-11-30T03:49:51.448Z,27.45
2023-11-30T03:52:18.023Z,27.43
2023-11-30T03:54:44.599Z,27.99
2023-11-30T03:57:11.315Z,28.17
2023-11-30T04:07:14.804Z,26.08
2023-11-30T04:09:41.558Z,26.35
2023-11-30T04:12:08.265Z,26.32
2023-11-30T04:14:34.952Z,25.76
2023-11-30T04:17:04.486Z,26.54
2023-11-30T04:19:31.537Z,27.02
2023-11-30T04:32:08.000Z,29.48
2023-11-30T04:34:34.769Z,28.83
2023-11-30T04:37:01.438Z,28.98
2023-11-30T04:39:28.235Z,28.70
2023-11-30T04:41:54.850Z,28.58
2023-11-30T04:49:26.241Z,32.26
2023-11-30T04:51:52.840Z,31.61
2023-11-30T04:54:19.545Z,32.32
2023-11-30T04:59:17.648Z,30.81
2023-11-30T05:01:45.032Z,32.18
2023-11-30T05:04:11.893Z,31.46
2023-11-30T05:06:38.548Z,32.22
2023-11-30T05:09:06.324Z,33.12
2023-11-30T05:11:32.966Z,32.05
2023-11-30T05:13:59.560Z,32.78
2023-11-30T05:16:26.209Z,32.74
2023-11-30T05:18:52.799Z,30.83
2023-11-30T05:21:19.452Z,30.06
2023-11-30T05:23:46.119Z,29.12
2023-11-30T05:26:12.685Z,29.55
2023-11-30T05:28:39.268Z,29.69
2023-11-30T05:31:06.204Z,31.03
2023-11-30T05:33:32.894Z,33.11
2023-11-30T05:35:59.638Z,32.86
2023-11-30T05:38:27.476Z,32.78
2023-11-30T05:40:54.878Z,33.38
2023-11-30T05:43:21.524Z,24.95
2023-11-30T05:45:48.133Z,25.41
2023-11-30T05:48:15.081Z,27.86
2023-11-30T05:50:41.887Z,28.80
2023-11-30T05:53:08.476Z,24.82
2023-11-30T05:55:35.087Z,24.50
2023-11-30T05:58:02.120Z,26.85
2023-11-30T06:00:28.767Z,29.54
2023-11-30T06:02:55.417Z,32.28
2023-11-30T06:05:22.191Z,31.02
2023-11-30T06:07:48.839Z,24.48
2023-11-30T06:10:15.641Z,24.98
2023-11-30T06:12:42.353Z,31.21
2023-11-30T06:15:10.086Z,32.40
2023-11-30T06:17:36.766Z,34.72
2023-11-30T06:20:07.151Z,32.79
2023-11-30T06:22:36.680Z,39.72
2023-11-30T06:25:04.307Z,41.06
2023-11-30T06:27:31.100Z,41.76
2023-11-30T06:29:57.641Z,41.76
2023-11-30T06:32:24.190Z,41.59
2023-11-30T06:34:50.897Z,41.03
2023-11-30T06:37:17.526Z,42.01
2023-11-30T06:39:44.125Z,42.21
2023-11-30T06:42:10.894Z,40.24
2023-11-30T06:44:37.639Z,32.83
2023-11-30T06:47:04.358Z,31.78
2023-11-30T06:49:30.872Z,34.04
2023-11-30T06:51:57.628Z,35.45
2023-11-30T06:54:24.151Z,40.18
2023-11-30T07:01:54.161Z,42.36
2023-11-30T07:04:20.963Z,40.17
2023-11-30T07:06:47.620Z,40.33
2023-11-30T07:09:14.281Z,36.49
2023-11-30T07:11:41.106Z,34.23
2023-11-30T07:14:07.716Z,33.22
2023-11-30T07:16:34.382Z,26.68
2023-11-30T07:19:01.042Z,30.41
2023-11-30T07:21:28.346Z,33.16
2023-11-30T07:23:55.123Z,33.37
2023-11-30T07:26:21.724Z,33.58
2023-11-30T07:28:48.254Z,28.38
2023-11-30T07:31:19.110Z,29.21
2023-11-30T07:33:46.447Z,31.16
2023-11-30T07:36:14.310Z,25.87
2023-11-30T07:38:41.231Z,31.03
2023-11-30T07:41:07.925Z,30.89
2023-11-30T07:43:34.656Z,27.44
2023-11-30T07:46:02.029Z,23.27
2023-11-30T07:48:29.422Z,24.31
2023-11-30T07:50:56.129Z,26.02
2023-11-30T07:53:23.813Z,18.84
2023-11-30T07:55:56.166Z,16.85
2023-11-30T07:58:23.306Z,15.75
2023-11-30T08:00:50.238Z,15.18
2023-11-30T08:03:17.013Z,14.75
2023-11-30T08:05:44.556Z,15.62
2023-11-30T08:08:12.220Z,16.29
2023-11-30T08:10:39.134Z,15.89
2023-11-30T08:13:06.192Z,16.10
2023-11-30T08:15:32.768Z,16.52
2023-11-30T08:18:00.101Z,17.61
2023-11-30T08:20:27.379Z,17.01
2023-11-30T08:22:55.044Z,15.36
2023-11-30T08:25:21.694Z,14.60
2023-11-30T08:27:51.913Z,14.05
2023-11-30T08:30:20.721Z,13.90
2023-11-30T08:32:47.383Z,13.59
2023-11-30T08:35:14.099Z,13.89
2023-11-30T08:37:40.905Z,13.83
2023-11-30T08:40:08.811Z,13.23
2023-11-30T08:42:35.964Z,10.68
2023-11-30T08:45:03.360Z,12.23
2023-11-30T08:47:30.081Z,15.28
2023-11-30T08:49:56.741Z,14.71
2023-11-30T08:52:23.710Z,13.91
2023-11-30T08:54:51.900Z,13.56
2023-11-30T08:57:19.991Z,14.95
2023-11-30T08:59:46.932Z,16.63
2023-11-30T09:02:14.144Z,16.24
2023-11-30T09:04:41.137Z,18.76
2023-11-30T09:07:07.841Z,19.76
2023-11-30T09:09:34.592Z,19.24
2023-11-30T09:12:04.827Z,20.38
2023-11-30T09:14:31.724Z,21.16
2023-11-30T09:17:00.129Z,21.34
2023-11-30T09:19:26.798Z,21.04
2023-11-30T09:21:53.674Z,20.57
2023-11-30T09:24:22.206Z,21.66
2023-11-30T09:26:52.171Z,21.29
2023-11-30T09:29:19.463Z,20.51
2023-11-30T09:31:46.398Z,20.50
2023-11-30T09:34:13.148Z,19.28
2023-11-30T09:36:40.690Z,19.60
2023-11-30T09:39:14.245Z,19.92
2023-11-30T09:41:40.983Z,18.73
2023-11-30T09:44:07.829Z,18.43
2023-11-30T09:46:34.641Z,18.47
2023-11-30T09:49:03.101Z,17.90
2023-11-30T09:51:30.033Z,16.94
2023-11-30T09:53:58.053Z,16.21
2023-11-30T09:56:27.977Z,14.88
2023-11-30T09:58:55.052Z,15.68
2023-11-30T10:01:22.968Z,15.06
2023-11-30T10:03:50.401Z,14.99
2023-11-30T10:06:17.284Z,15.06
2023-11-30T10:08:44.490Z,15.90
2023-11-30T10:11:11.312Z,15.22
2023-11-30T10:13:38.022Z,16.12
2023-11-30T10:16:08.129Z,15.84
2023-11-30T10:23:39.670Z,17.07
2023-11-30T10:26:06.703Z,17.76
2023-11-30T10:28:33.449Z,18.78
2023-11-30T10:31:03.324Z,18.02
2023-11-30T10:33:30.360Z,16.99
2023-11-30T10:36:02.399Z,17.75
2023-11-30T10:38:37.616Z,18.09
2023-11-30T10:41:18.406Z,19.25
2023-11-30T10:43:49.102Z,20.72
2023-11-30T10:46:16.052Z,20.43
2023-11-30T10:48:42.840Z,20.78
2023-11-30T10:51:12.316Z,19.83
2023-11-30T10:53:42.040Z,19.71
2023-11-30T10:56:13.180Z,20.96
2023-11-30T10:58:42.057Z,21.95
2023-11-30T11:01:09.267Z,21.80
2023-11-30T11:03:36.351Z,20.93
2023-11-30T11:06:03.840Z,21.59
2023-11-30T11:08:31.658Z,21.81
2023-11-30T11:11:07.940Z,20.94
2023-11-30T11:13:47.452Z,19.55
2023-11-30T11:16:14.640Z,19.42
2023-11-30T11:21:26.660Z,20.34
2023-11-30T11:23:54.286Z,21.50
2023-11-30T11:26:23.309Z,20.39
2023-11-30T11:28:50.917Z,18.77
2023-11-30T11:31:17.749Z,17.69
2023-11-30T11:33:44.631Z,17.24
2023-11-30T11:36:14.149Z,17.36
2023-11-30T11:38:41.174Z,17.35
2023-11-30T11:41:08.729Z,17.90
2023-11-30T11:43:35.409Z,18.89
2023-11-30T11:46:02.481Z,18.14
2023-11-30T11:48:29.562Z,16.97
2023-11-30T11:50:58.073Z,16.52
2023-11-30T11:53:24.780Z,17.18
2023-11-30T11:55:51.454Z,17.81
2023-11-30T11:58:18.239Z,18.43
2023-11-30T12:00:54.498Z,18.24
2023-11-30T12:03:21.762Z,18.50
2023-11-30T12:05:48.782Z,17.99
2023-11-30T12:08:15.774Z,19.50
2023-11-30T12:18:19.719Z,18.64
2023-11-30T12:20:49.912Z,20.12
2023-11-30T12:23:17.052Z,17.80
2023-11-30T12:25:43.803Z,17.70
2023-11-30T12:28:12.087Z,16.94
2023-11-30T12:30:38.960Z,16.74
2023-11-30T12:38:08.897Z,17.56
2023-11-30T12:40:36.143Z,18.11
2023-11-30T12:43:02.890Z,18.75
2023-11-30T12:45:29.527Z,18.34
2023-11-30T12:47:56.216Z,18.95
2023-11-30T12:50:24.116Z,18.53
2023-11-30T12:52:50.958Z,18.80
2023-11-30T12:55:19.817Z,18.67
2023-11-30T12:57:47.850Z,18.64
2023-11-30T13:00:15.339Z,18.84
2023-11-30T13:02:44.489Z,19.22
2023-11-30T13:05:12.568Z,19.38
2023-11-30T13:07:42.454Z,19.65
2023-11-30T13:10:11.066Z,19.14
2023-11-30T13:12:39.039Z,20.29
2023-11-30T13:15:07.482Z,20.45
2023-11-30T13:17:34.416Z,19.63
2023-11-30T13:20:02.109Z,19.89
2023-11-30T13:22:28.797Z,20.68
2023-11-30T13:24:56.665Z,20.84
2023-11-30T13:27:24.698Z,20.68
2023-11-30T13:29:51.424Z,20.38
2023-11-30T13:32:18.004Z,19.69
2023-11-30T13:34:44.591Z,19.73
2023-11-30T13:37:11.264Z,19.31
2023-11-30T13:39:38.143Z,19.71
2023-11-30T13:42:05.120Z,19.91
2023-11-30T13:44:31.930Z,19.74
2023-11-30T13:46:58.692Z,19.86
2023-11-30T13:49:26.782Z,19.97
2023-11-30T13:51:53.475Z,19.51
2023-11-30T13:54:20.383Z,20.07
2023-11-30T13:56:47.265Z,19.26
2023-11-30T13:59:13.972Z,20.50
2023-11-30T14:01:40.909Z,20.76
2023-11-30T14:04:08.424Z,20.29
2023-11-30T14:06:36.973Z,19.61
2023-11-30T14:09:14.101Z,19.79
2023-11-30T14:11:41.461Z,19.51
2023-11-30T14:14:08.376Z,19.53
2023-11-30T14:16:35.669Z,19.58
2023-11-30T14:19:02.538Z,19.99
2023-11-30T14:21:29.212Z,20.20
2023-11-30T14:23:56.265Z,19.88
2023-11-30T14:26:23.124Z,20.10
2023-11-30T14:28:50.773Z,19.92
2023-11-30T14:31:17.594Z,20.42
2023-11-30T14:33:45.760Z,19.98
2023-11-30T14:36:12.884Z,20.29
2023-11-30T14:38:41.060Z,20.31
2023-11-30T14:41:08.147Z,20.49
2023-11-30T14:43:34.769Z,19.97
2023-11-30T14:46:02.303Z,20.12
2023-11-30T14:48:29.101Z,20.38
2023-11-30T14:50:55.884Z,20.32
2023-11-30T14:53:22.707Z,20.11
2023-11-30T14:55:49.589Z,19.74
2023-11-30T14:58:16.275Z,21.12
2023-11-30T15:00:43.001Z,20.91
2023-11-30T15:03:12.340Z,20.61
2023-11-30T15:08:11.054Z,19.66
2023-11-30T15:10:37.829Z,20.90
2023-11-30T15:13:04.518Z,21.04
2023-11-30T15:15:31.290Z,21.62
2023-11-30T15:17:58.110Z,20.50
2023-11-30T15:20:24.826Z,21.22
2023-11-30T15:22:51.558Z,21.52
2023-11-30T15:25:19.455Z,20.76
2023-11-30T15:27:47.270Z,19.89
2023-11-30T15:30:14.751Z,19.80
2023-11-30T15:32:41.689Z,18.89
2023-11-30T15:35:08.618Z,18.48
2023-11-30T15:37:36.075Z,18.17
2023-11-30T15:40:08.939Z,18.98
2023-11-30T15:42:35.986Z,19.60
2023-11-30T15:45:03.560Z,18.94
2023-11-30T15:47:30.314Z,18.97
2023-11-30T15:49:57.712Z,18.71
2023-11-30T15:52:24.439Z,19.06
2023-11-30T15:54:51.433Z,19.09
2023-11-30T15:57:18.235Z,20.32
2023-11-30T15:59:44.980Z,20.02
2023-11-30T16:02:11.831Z,19.45
2023-11-30T16:04:42.567Z,20.14
2023-11-30T16:07:09.328Z,19.37
2023-11-30T16:09:36.489Z,19.93
2023-11-30T16:14:34.839Z,20.15
2023-11-30T16:17:02.258Z,20.70
2023-11-30T16:19:28.922Z,21.26
2023-11-30T16:21:57.424Z,21.52
2023-11-30T16:24:24.606Z,20.98
2023-11-30T16:26:55.053Z,21.57
2023-11-30T16:29:22.674Z,20.94
2023-11-30T16:31:50.488Z,18.86
2023-11-30T16:34:19.637Z,18.27
2023-11-30T16:36:47.761Z,18.37
2023-11-30T16:39:14.687Z,18.28
2023-11-30T16:41:42.069Z,17.73
2023-11-30T16:44:08.796Z,18.24
2023-11-30T16:46:36.539Z,18.16
2023-11-30T16:49:03.650Z,17.52
2023-11-30T16:51:30.518Z,17.64
2023-11-30T16:53:57.163Z,18.75
2023-11-30T16:56:27.339Z,17.48
2023-11-30T16:58:54.388Z,16.96
2023-11-30T17:01:21.759Z,17.16
2023-11-30T17:03:48.567Z,16.85
2023-11-30T17:06:15.383Z,17.26
2023-11-30T17:08:42.279Z,17.72
2023-11-30T17:11:09.038Z,17.67
2023-11-30T17:16:08.970Z,16.59
2023-11-30T17:21:07.816Z,16.82
2023-11-30T17:23:35.113Z,16.71
2023-11-30T17:26:02.036Z,15.99
2023-11-30T17:28:28.641Z,15.59
2023-11-30T17:30:56.523Z,15.32
2023-11-30T17:33:25.030Z,15.52
2023-11-30T17:40:55.080Z,16.63
2023-11-30T17:43:21.906Z,16.19
2023-11-30T17:45:48.523Z,15.61
2023-11-30T17:48:15.240Z,16.93
2023-11-30T17:50:44.311Z,18.72
2023-11-30T17:53:11.004Z,17.86
2023-11-30T17:55:37.706Z,17.88
2023-11-30T17:58:04.502Z,17.83
2023-11-30T18:00:31.270Z,17.95
2023-11-30T18:02:58.890Z,18.26
2023-11-30T18:05:25.650Z,18.53
2023-11-30T18:07:52.943Z,18.26
2023-11-30T18:10:19.605Z,19.38
2023-11-30T18:12:46.798Z,18.25
2023-11-30T18:15:13.514Z,17.91
2023-11-30T18:17:40.176Z,15.96
2023-11-30T18:20:07.284Z,15.31
2023-11-30T18:22:34.181Z,15.17
2023-11-30T18:25:01.112Z,16.38
2023-11-30T18:27:28.177Z,18.25
2023-11-30T18:29:54.975Z,18.24
2023-11-30T18:32:21.738Z,18.77
2023-11-30T18:34:48.479Z,21.10
2023-11-30T18:37:15.205Z,20.46
2023-11-30T18:39:41.897Z,21.25
2023-11-30T18:47:15.047Z,20.49
2023-11-30T18:49:41.979Z,21.57
2023-11-30T18:52:08.607Z,20.62
2023-11-30T18:54:35.325Z,20.25
2023-11-30T18:57:02.103Z,21.81
2023-11-30T18:59:28.998Z,20.78
2023-11-30T19:01:55.921Z,21.61
2023-11-30T19:04:23.301Z,20.53
2023-11-30T19:06:50.000Z,21.61
2023-11-30T19:09:16.745Z,21.59
2023-11-30T19:11:46.560Z,21.59
2023-11-30T19:14:13.321Z,21.53
2023-11-30T19:16:41.063Z,22.61
2023-11-30T19:19:08.888Z,22.32
2023-11-30T19:21:40.914Z,23.27
2023-11-30T19:24:08.575Z,23.21
2023-11-30T19:26:35.279Z,23.66
2023-11-30T19:29:04.927Z,22.57
2023-11-30T19:31:31.769Z,23.03
2023-11-30T19:33:58.771Z,22.75
2023-11-30T19:36:25.467Z,22.22
2023-11-30T19:38:52.178Z,23.18
2023-11-30T19:41:18.893Z,22.96
2023-11-30T19:43:45.633Z,22.41
2023-11-30T19:46:15.746Z,21.75
2023-11-30T19:48:44.775Z,21.65
2023-11-30T19:51:17.772Z,23.09
2023-11-30T19:53:45.164Z,22.86
2023-11-30T19:56:15.483Z,24.46
2023-11-30T19:58:45.596Z,22.74
2023-11-30T20:01:12.361Z,23.11
2023-11-30T20:03:39.427Z,22.73
2023-11-30T20:06:06.231Z,21.94
2023-11-30T20:08:32.880Z,21.35
2023-11-30T20:10:59.621Z,21.79
2023-11-30T20:13:26.576Z,22.64
2023-11-30T20:15:55.700Z,22.70
2023-11-30T20:18:22.356Z,22.08
2023-11-30T20:20:50.197Z,22.42
2023-11-30T20:23:16.914Z,22.18
2023-11-30T20:25:43.586Z,21.31
2023-11-30T20:28:10.535Z,21.70
2023-11-30T20:30:37.443Z,21.20
2023-11-30T20:33:04.190Z,20.25
2023-11-30T20:35:30.991Z,20.59
2023-11-30T20:37:57.815Z,20.06
2023-11-30T20:40:24.411Z,19.35
2023-11-30T20:42:52.435Z,16.37
2023-11-30T20:45:19.333Z,18.62
2023-11-30T20:47:45.929Z,18.57
2023-11-30T20:50:12.626Z,19.41
2023-11-30T20:52:39.416Z,19.07
2023-11-30T20:55:06.372Z,21.17
2023-11-30T20:57:38.505Z,20.08
2023-11-30T21:00:06.508Z,19.93
2023-11-30T21:02:33.203Z,23.71
2023-11-30T21:04:59.898Z,20.78
2023-11-30T21:07:28.739Z,20.82
2023-11-30T21:09:56.236Z,21.41
2023-11-30T21:12:22.913Z,21.73
2023-11-30T21:14:49.727Z,20.27
2023-11-30T21:17:16.382Z,20.20
2023-11-30T21:22:14.469Z,19.73
2023-11-30T21:24:43.060Z,21.11
2023-11-30T21:27:09.910Z,21.12
2023-11-30T21:29:36.604Z,21.92
2023-11-30T21:32:03.597Z,22.37
2023-11-30T21:34:30.599Z,21.67
2023-11-30T21:36:57.913Z,22.72
2023-11-30T21:39:26.454Z,22.93
2023-11-30T21:41:53.149Z,22.94
2023-11-30T21:44:19.816Z,22.90
2023-11-30T21:46:46.411Z,22.95
2023-11-30T21:49:15.145Z,22.71
2023-11-30T21:51:41.765Z,23.50
2023-11-30T21:54:08.577Z,23.28
2023-11-30T21:56:35.225Z,23.52
2023-11-30T21:59:02.960Z,23.36
2023-11-30T22:01:29.766Z,23.39
2023-11-30T22:03:56.672Z,23.80
2023-11-30T22:06:23.372Z,23.21
2023-11-30T22:13:56.310Z,20.65
2023-11-30T22:16:28.924Z,19.31
2023-11-30T22:19:00.089Z,19.47
2023-11-30T22:21:26.935Z,17.99
2023-11-30T22:23:53.569Z,18.38
2023-11-30T22:26:20.259Z,18.12
2023-11-30T22:28:47.043Z,19.78
2023-11-30T22:31:17.267Z,18.00
2023-11-30T22:33:43.929Z,18.10
2023-11-30T22:36:11.089Z,17.27
2023-11-30T22:41:10.550Z,16.76
2023-11-30T22:43:37.446Z,17.49
2023-11-30T22:46:04.429Z,17.36
2023-11-30T22:48:33.444Z,16.28
2023-11-30T22:51:00.211Z,15.61
2023-11-30T22:55:58.476Z,15.36
2023-11-30T22:58:25.324Z,15.05
2023-11-30T23:00:52.242Z,14.97
2023-11-30T23:05:50.682Z,14.15
2023-11-30T23:10:49.116Z,15.23
2023-11-30T23:13:15.732Z,14.51
2023-11-30T23:15:43.657Z,14.38
2023-11-30T23:18:10.537Z,14.10
2023-11-30T23:20:37.416Z,12.46
2023-11-30T23:25:35.663Z,13.45
2023-11-30T23:28:02.405Z,11.65
2023-11-30T23:30:29.163Z,11.19
2023-11-30T23:32:55.893Z,10.65
2023-11-30T23:35:22.788Z,11.59
2023-11-30T23:37:49.408Z,12.15
2023-11-30T23:40:16.137Z,12.98
2023-11-30T23:42:42.778Z,12.86
2023-11-30T23:45:10.470Z,12.96
2023-11-30T23:57:45.539Z,9.25
